Time;durP1;ratioP1;P1;durP2;ratioP2;P2;SDS_P1;SDS_P2;PMS_P1;PMS_P2;Temp;Humidity;BMP_temperature;BMP_pressure;BME280_temperature;BME280_humidity;BME280_pressure;Samples;Min_cycle;Max_cycle;Signal;HPM_P1;HPM_P2
2022/12/01 00:00:41;;;;;;;48.78;29.60;;;179.90;2252.80;;;;;;4973037;28;20544;-62
2022/12/01 00:03:07;;;;;;;36.55;22.65;;;179.80;2252.80;;;;;;4972840;28;20022;-58
2022/12/01 00:05:34;;;;;;;38.53;21.35;;;179.80;2252.80;;;;;;4972643;28;20475;-60
2022/12/01 00:08:00;;;;;;;28.48;17.08;;;179.80;2252.80;;;;;;4972935;28;20031;-60
2022/12/01 00:10:26;;;;;;;57.42;31.08;;;179.80;2252.80;;;;;;4972665;28;20038;-59
2022/12/01 00:12:53;;;;;;;30.75;19.73;;;179.80;2252.80;;;;;;4972599;28;20023;-61
2022/12/01 00:15:19;;;;;;;31.83;18.92;;;179.80;2252.80;;;;;;4972609;28;20026;-59
2022/12/01 00:17:46;;;;;;;31.98;20.38;;;179.80;2252.80;;;;;;4972340;28;20027;-59
2022/12/01 00:20:12;;;;;;;34.03;18.48;;;179.80;2252.80;;;;;;4972271;28;20046;-58
2022/12/01 00:22:42;;;;;;;34.13;18.02;;;179.80;2252.80;;;;;;4972835;28;20077;-60
2022/12/01 00:25:08;;;;;;;32.20;19.95;;;179.80;2252.80;;;;;;4972459;28;20110;-59
2022/12/01 00:27:33;;;;;;;35.22;18.48;;;179.90;2252.80;;;;;;4972129;28;20613;-61
2022/12/01 00:29:59;;;;;;;30.52;16.98;;;179.80;2252.80;;;;;;4972176;28;20043;-59
2022/12/01 00:32:25;;;;;;;28.98;16.90;;;179.90;2252.80;;;;;;4972136;28;20069;-60
2022/12/01 00:34:50;;;;;;;38.70;19.65;;;179.80;2252.80;;;;;;4972268;28;20109;-59
2022/12/01 00:37:16;;;;;;;29.83;17.05;;;179.70;2252.80;;;;;;4972022;28;20513;-61
2022/12/01 00:39:42;;;;;;;31.27;16.55;;;179.70;2252.80;;;;;;4972126;28;20081;-59
2022/12/01 00:42:07;;;;;;;26.10;15.05;;;179.60;2252.80;;;;;;4972177;28;20106;-58
2022/12/01 00:44:33;;;;;;;21.08;11.85;;;179.80;2252.80;;;;;;4971922;28;20497;-59
2022/12/01 00:46:59;;;;;;;20.48;10.52;;;179.70;2252.80;;;;;;4972336;28;20065;-58
2022/12/01 00:49:24;;;;;;;20.92;11.13;;;179.50;2252.80;;;;;;4971929;28;20465;-60
2022/12/01 00:51:50;;;;;;;22.13;12.70;;;179.40;2252.80;;;;;;4972059;28;20386;-58
2022/12/01 00:54:16;;;;;;;24.98;15.32;;;179.50;2252.80;;;;;;4971870;28;20022;-59
2022/12/01 00:56:41;;;;;;;19.70;12.13;;;179.60;2252.80;;;;;;4971826;28;20058;-60
2022/12/01 00:59:07;;;;;;;20.67;13.23;;;179.50;2252.80;;;;;;4971895;28;20544;-60
2022/12/01 01:01:33;;;;;;;40.55;17.95;;;179.40;2252.80;;;;;;4971788;28;20031;-57
2022/12/01 01:03:59;;;;;;;26.65;14.43;;;179.40;2252.80;;;;;;4971881;28;20469;-57
2022/12/01 01:06:25;;;;;;;21.08;13.95;;;179.20;2252.80;;;;;;4971372;28;20037;-61
2022/12/01 01:08:51;;;;;;;24.80;14.13;;;179.30;2252.80;;;;;;4971490;28;20109;-60
2022/12/01 01:11:16;;;;;;;20.15;11.13;;;179.40;2252.80;;;;;;4971841;28;20061;-58
2022/12/01 01:13:42;;;;;;;22.67;12.70;;;179.30;2252.80;;;;;;4971829;28;20176;-58
2022/12/01 01:16:20;;;;;;;19.30;10.95;;;179.40;2252.80;;;;;;4972099;28;20469;-60
2022/12/01 01:18:46;;;;;;;24.00;12.80;;;179.30;2252.80;;;;;;4971159;28;20035;-59
2022/12/01 01:21:17;;;;;;;29.35;15.73;;;179.30;2252.80;;;;;;4971445;28;20442;-59
2022/12/01 01:23:43;;;;;;;38.85;22.13;;;179.40;2252.80;;;;;;4971502;28;20101;-59
2022/12/01 01:26:18;;;;;;;47.28;23.65;;;179.40;2252.80;;;;;;4971878;28;20122;-62
2022/12/01 01:28:44;;;;;;;62.97;35.30;;;179.40;2252.80;;;;;;4971412;28;20035;-60
2022/12/01 01:31:12;;;;;;;36.63;20.55;;;179.40;2252.80;;;;;;4971518;28;20512;-59
2022/12/01 01:33:39;;;;;;;34.45;18.77;;;179.50;2252.80;;;;;;4971155;28;20074;-60
2022/12/01 01:36:05;;;;;;;33.17;19.63;;;179.60;2252.80;;;;;;4971067;28;20035;-60
2022/12/01 01:38:31;;;;;;;29.13;15.13;;;179.60;2252.80;;;;;;4971640;28;20035;-59
2022/12/01 01:40:57;;;;;;;61.85;37.75;;;179.50;2252.80;;;;;;4971272;28;20043;-60
2022/12/01 01:43:50;;;;;;;23.90;14.25;;;179.50;2252.80;;;;;;4971143;28;20030;-61
2022/12/01 01:46:20;;;;;;;29.45;15.75;;;179.50;2252.80;;;;;;4911891;29;20070;-60
2022/12/01 01:49:16;;;;;;;38.20;20.80;;;179.50;2252.80;;;;;;4911708;29;20063;-60
2022/12/01 01:51:49;;;;;;;33.85;17.38;;;179.50;2252.80;;;;;;4892886;29;20043;-61
2022/12/01 01:54:20;;;;;;;21.20;13.55;;;179.50;2252.80;;;;;;4892873;29;20088;-60
2022/12/01 01:56:49;;;;;;;26.30;16.17;;;179.40;2252.80;;;;;;4892904;29;20527;-60
2022/12/01 01:59:20;;;;;;;25.13;15.27;;;179.40;2252.80;;;;;;4892705;29;20032;-60
2022/12/01 02:01:51;;;;;;;26.40;14.20;;;179.40;2252.80;;;;;;4892651;29;20542;-60
2022/12/01 02:04:19;;;;;;;30.38;15.32;;;179.50;2252.80;;;;;;4892873;29;20053;-60
2022/12/01 02:06:45;;;;;;;22.05;13.07;;;179.50;2252.80;;;;;;4892555;29;20029;-61
2022/12/01 02:09:11;;;;;;;23.80;13.93;;;179.50;2252.80;;;;;;4892774;29;20064;-61
2022/12/01 02:12:10;;;;;;;21.17;11.18;;;179.50;2252.80;;;;;;4892789;29;20038;-60
2022/12/01 02:14:44;;;;;;;24.95;15.82;;;179.20;2252.80;;;;;;4873873;29;20041;-59
2022/12/01 02:17:52;;;;;;;25.20;15.68;;;179.30;2252.80;;;;;;4874138;29;20056;-60
2022/12/01 02:20:26;;;;;;;17.00;10.02;;;179.40;2252.80;;;;;;4873730;29;20045;-59
2022/12/01 02:23:19;;;;;;;18.17;9.98;;;179.20;2252.80;;;;;;4880568;29;20432;-59
2022/12/01 02:25:50;;;;;;;20.37;11.67;;;154.50;2252.80;;;;;;4892628;29;20476;-59
2022/12/01 02:28:33;;;;;;;26.60;12.10;;;154.50;2252.80;;;;;;4892832;29;20804;-59
2022/12/01 02:31:20;;;;;;;30.90;16.92;;;179.20;2252.80;;;;;;4893887;29;20587;-59
2022/12/01 02:33:57;;;;;;;19.33;9.85;;;179.30;2252.80;;;;;;4896209;29;20036;-60
2022/12/01 02:36:38;;;;;;;18.00;10.90;;;179.20;2252.80;;;;;;4895875;29;20480;-59
2022/12/01 02:39:16;;;;;;;23.35;13.13;;;154.50;2252.80;;;;;;4895870;29;20075;-59
2022/12/01 02:41:50;;;;;;;26.10;14.77;;;154.50;2252.80;;;;;;4895965;29;20051;-60
2022/12/01 02:44:28;;;;;;;24.38;13.75;;;154.50;2252.80;;;;;;4896045;29;20029;-60
2022/12/01 02:46:57;;;;;;;14.57;7.95;;;154.40;2252.80;;;;;;4895765;29;20435;-59
2022/12/01 02:49:29;;;;;;;21.60;12.10;;;154.10;2252.80;;;;;;4895659;29;20495;-60
2022/12/01 02:51:57;;;;;;;30.67;17.17;;;154.00;2252.80;;;;;;4942741;28;20039;-59
2022/12/01 02:54:24;;;;;;;24.85;13.55;;;154.10;2252.80;;;;;;4974259;28;20047;-59
2022/12/01 02:56:53;;;;;;;23.75;12.77;;;154.30;2252.80;;;;;;4974105;28;20480;-59
2022/12/01 02:59:19;;;;;;;22.83;13.68;;;154.30;2252.80;;;;;;4973966;28;20031;-60
2022/12/01 03:02:03;;;;;;;29.02;15.82;;;154.30;2252.80;;;;;;4974038;28;20109;-60
2022/12/01 03:04:37;;;;;;;25.77;15.60;;;154.50;2252.80;;;;;;4974173;28;20015;-60
2022/12/01 03:07:09;;;;;;;27.63;15.15;;;154.50;2252.80;;;;;;4973704;28;20046;-60
2022/12/01 03:09:56;;;;;;;22.75;13.55;;;179.20;2252.80;;;;;;4973884;28;20062;-59
2022/12/01 03:12:34;;;;;;;19.50;12.48;;;154.50;2252.80;;;;;;4973609;28;20110;-59
2022/12/01 03:15:20;;;;;;;25.20;14.98;;;179.20;2252.80;;;;;;4973815;28;20031;-59
2022/12/01 03:18:04;;;;;;;19.58;11.45;;;179.20;2252.80;;;;;;4974111;28;20034;-60
2022/12/01 03:20:52;;;;;;;22.60;11.75;;;154.50;2252.80;;;;;;4973619;28;20382;-59
2022/12/01 03:23:22;;;;;;;21.95;13.32;;;179.20;2252.80;;;;;;4973781;28;20038;-60
2022/12/01 03:25:52;;;;;;;17.73;10.45;;;179.20;2252.80;;;;;;4973892;28;20027;-60
2022/12/01 03:28:22;;;;;;;19.20;10.65;;;179.20;2252.80;;;;;;4973442;28;20027;-59
2022/12/01 03:30:51;;;;;;;16.95;10.85;;;179.20;2252.80;;;;;;4973726;28;20027;-59
2022/12/01 03:33:24;;;;;;;17.90;8.30;;;179.20;2252.80;;;;;;4973497;28;20023;-59
2022/12/01 03:36:13;;;;;;;15.98;9.50;;;179.20;2252.80;;;;;;4973155;28;20117;-59
2022/12/01 03:38:42;;;;;;;15.85;8.95;;;179.20;2252.80;;;;;;4973660;28;20493;-60
2022/12/01 03:41:15;;;;;;;11.68;7.80;;;154.50;2252.80;;;;;;4972797;28;20114;-60
2022/12/01 03:43:47;;;;;;;14.00;8.52;;;154.50;2252.80;;;;;;4973455;28;20386;-60
2022/12/01 03:46:24;;;;;;;15.88;10.43;;;154.50;2252.80;;;;;;4973286;28;20035;-59
2022/12/01 03:48:53;;;;;;;14.40;8.55;;;179.20;2252.80;;;;;;4973213;28;20425;-61
2022/12/01 03:51:32;;;;;;;15.50;7.63;;;179.20;2252.80;;;;;;4973061;28;20034;-60
2022/12/01 03:54:43;;;;;;;12.18;6.72;;;154.50;2252.80;;;;;;4973184;28;20031;-60
2022/12/01 03:57:13;;;;;;;18.85;10.98;;;154.50;2252.80;;;;;;4913603;29;20491;-60
2022/12/01 03:59:40;;;;;;;17.45;10.15;;;154.50;2252.80;;;;;;4913820;29;20048;-61
2022/12/01 04:02:06;;;;;;;13.25;7.60;;;179.20;2252.80;;;;;;4913454;29;20035;-60
2022/12/01 04:04:32;;;;;;;13.20;8.07;;;154.50;2252.80;;;;;;4913304;29;20020;-60
2022/12/01 04:06:58;;;;;;;29.58;12.45;;;154.50;2252.80;;;;;;4913231;29;20079;-60
2022/12/01 04:09:23;;;;;;;24.70;14.23;;;154.40;2252.80;;;;;;4913158;29;20055;-60
2022/12/01 04:14:33;;;;;;;18.52;10.88;;;154.40;2252.80;;;;;;4913276;29;20052;-61
2022/12/01 04:16:59;;;;;;;23.80;14.02;;;154.30;2252.80;;;;;;4913492;29;20038;-59
2022/12/01 04:19:25;;;;;;;19.95;10.60;;;154.30;2252.80;;;;;;4912959;29;20391;-60
2022/12/01 04:21:50;;;;;;;22.38;10.80;;;154.30;2252.80;;;;;;4913153;29;20475;-59
2022/12/01 04:24:16;;;;;;;18.67;10.18;;;154.40;2252.80;;;;;;4913029;29;20032;-60
2022/12/01 04:26:43;;;;;;;28.00;15.00;;;154.40;2252.80;;;;;;4912974;29;20039;-60
2022/12/01 04:29:10;;;;;;;27.35;14.80;;;154.40;2252.80;;;;;;4913102;29;20056;-59
2022/12/01 04:31:36;;;;;;;20.83;11.00;;;154.40;2252.80;;;;;;4918253;29;20164;-59
2022/12/01 04:34:02;;;;;;;20.30;11.98;;;154.50;2252.80;;;;;;4952845;29;20118;-60
2022/12/01 04:36:33;;;;;;;24.60;15.90;;;154.50;2252.80;;;;;;4952891;29;20527;-59
2022/12/01 04:38:59;;;;;;;37.42;19.08;;;154.50;2252.80;;;;;;4953099;29;20042;-59
2022/12/01 04:41:25;;;;;;;44.03;23.67;;;179.20;2252.80;;;;;;4952996;29;20083;-60
2022/12/01 04:43:54;;;;;;;49.38;26.92;;;154.30;2252.80;;;;;;4953007;29;20019;-60
2022/12/01 04:46:21;;;;;;;41.03;24.48;;;154.20;2252.80;;;;;;4953118;29;20031;-60
2022/12/01 04:48:47;;;;;;;35.85;20.52;;;154.20;2252.80;;;;;;4952859;29;20023;-60
2022/12/01 04:51:13;;;;;;;30.13;16.25;;;154.20;2252.80;;;;;;4952610;29;20038;-60
2022/12/01 04:53:38;;;;;;;22.98;15.85;;;154.20;2252.80;;;;;;4952024;28;20035;-60
2022/12/01 04:56:05;;;;;;;27.45;16.65;;;154.20;2252.80;;;;;;4960121;28;20058;-60
2022/12/01 04:58:32;;;;;;;23.30;13.20;;;154.30;2252.80;;;;;;4972514;28;20243;-59
2022/12/01 05:01:07;;;;;;;22.60;13.98;;;154.20;2252.80;;;;;;4971969;28;20041;-59
2022/12/01 05:03:37;;;;;;;23.92;15.20;;;154.30;2252.80;;;;;;4971617;28;20106;-60
2022/12/01 05:06:12;;;;;;;35.45;21.10;;;154.30;2252.80;;;;;;4971403;28;20041;-59
2022/12/01 05:08:38;;;;;;;43.20;23.50;;;154.30;2252.80;;;;;;4971793;28;20041;-58
2022/12/01 05:11:06;;;;;;;40.58;23.30;;;154.30;2252.80;;;;;;4971795;28;20035;-59
2022/12/01 05:13:33;;;;;;;32.17;16.73;;;154.50;2252.80;;;;;;4971785;28;20038;-59
2022/12/01 05:16:14;;;;;;;25.23;14.95;;;154.40;2252.80;;;;;;4972016;28;20386;-59
2022/12/01 05:18:39;;;;;;;25.75;12.93;;;154.20;2252.80;;;;;;4972165;28;20042;-59
2022/12/01 05:21:07;;;;;;;24.77;14.00;;;154.30;2252.80;;;;;;4971233;28;20032;-59
2022/12/01 05:23:35;;;;;;;27.20;15.00;;;154.20;2252.80;;;;;;4971454;28;20035;-59
2022/12/01 05:26:04;;;;;;;18.25;10.95;;;154.30;2252.80;;;;;;4971363;28;20023;-60
2022/12/01 05:28:30;;;;;;;33.70;16.10;;;154.30;2252.80;;;;;;4971788;28;20474;-59
2022/12/01 05:30:56;;;;;;;28.83;17.42;;;154.30;2252.80;;;;;;4971232;28;20023;-59
2022/12/01 05:33:23;;;;;;;28.58;16.20;;;154.40;2252.80;;;;;;4971599;28;20034;-59
2022/12/01 05:35:49;;;;;;;35.13;17.00;;;154.10;2252.80;;;;;;4971566;28;20389;-59
2022/12/01 05:38:15;;;;;;;26.27;17.13;;;154.10;2252.80;;;;;;4971488;28;20056;-61
2022/12/01 05:40:41;;;;;;;31.05;19.38;;;154.20;2252.80;;;;;;4971337;28;20031;-59
2022/12/01 05:43:07;;;;;;;35.85;20.90;;;154.30;2252.80;;;;;;4971326;28;20027;-57
2022/12/01 05:45:34;;;;;;;40.90;24.02;;;154.40;2252.80;;;;;;4971327;28;20170;-59
2022/12/01 05:48:01;;;;;;;25.45;16.75;;;154.40;2252.80;;;;;;4971611;28;20022;-59
2022/12/01 05:50:28;;;;;;;25.90;15.75;;;154.30;2252.80;;;;;;4971208;28;20054;-58
2022/12/01 05:52:54;;;;;;;25.45;15.52;;;154.20;2252.80;;;;;;4970994;28;20041;-58
2022/12/01 05:55:20;;;;;;;22.27;15.18;;;154.10;2252.80;;;;;;4971260;28;20027;-58
2022/12/01 05:57:45;;;;;;;37.72;23.55;;;154.10;2252.80;;;;;;4971144;28;20033;-58
2022/12/01 06:00:12;;;;;;;37.67;20.55;;;154.10;2252.80;;;;;;4971269;28;20034;-58
2022/12/01 06:02:39;;;;;;;31.73;18.10;;;154.00;2252.80;;;;;;4971220;28;20085;-57
2022/12/01 06:05:06;;;;;;;40.75;25.13;;;154.00;2252.80;;;;;;4972852;28;20030;-58
2022/12/01 06:07:33;;;;;;;44.80;28.55;;;153.90;2252.80;;;;;;4974772;28;20490;-59
2022/12/01 06:09:59;;;;;;;27.25;16.15;;;154.00;2252.80;;;;;;4975265;28;20037;-58
2022/12/01 06:12:25;;;;;;;26.63;15.65;;;154.00;2252.80;;;;;;4974793;28;20055;-59
2022/12/01 06:14:51;;;;;;;26.60;16.38;;;153.90;2252.80;;;;;;4974636;28;20381;-59
2022/12/01 06:17:16;;;;;;;25.42;14.80;;;154.00;2252.80;;;;;;4975143;28;20031;-57
2022/12/01 06:19:42;;;;;;;24.77;14.27;;;153.90;2252.80;;;;;;4974732;28;20520;-58
2022/12/01 06:22:09;;;;;;;26.95;13.80;;;154.00;2252.80;;;;;;4974889;28;20105;-58
2022/12/01 06:24:34;;;;;;;20.58;11.27;;;154.10;2252.80;;;;;;4974673;28;20069;-60
2022/12/01 06:27:00;;;;;;;26.85;14.65;;;154.10;2252.80;;;;;;4975114;28;20098;-58
2022/12/01 06:29:26;;;;;;;26.98;15.40;;;154.10;2252.80;;;;;;4974773;28;20478;-58
2022/12/01 06:31:51;;;;;;;31.65;17.00;;;154.20;2252.80;;;;;;4974804;28;20026;-58
2022/12/01 06:34:17;;;;;;;63.90;26.95;;;154.20;2252.80;;;;;;4974910;28;20351;-57
2022/12/01 06:36:43;;;;;;;59.42;29.70;;;154.30;2252.80;;;;;;4974229;28;20097;-59
2022/12/01 06:39:09;;;;;;;33.00;17.50;;;154.50;2252.80;;;;;;4974431;28;20033;-60
2022/12/01 06:41:38;;;;;;;30.00;18.02;;;154.30;2252.80;;;;;;4974228;28;20501;-61
2022/12/01 06:44:04;;;;;;;25.15;15.30;;;154.40;2252.80;;;;;;4974318;28;20062;-61
2022/12/01 06:46:30;;;;;;;33.30;19.45;;;154.40;2252.80;;;;;;4974657;28;20035;-61
2022/12/01 06:48:56;;;;;;;28.60;17.17;;;154.40;2252.80;;;;;;4974108;28;20082;-61
2022/12/01 06:51:22;;;;;;;15.82;10.23;;;154.50;2252.80;;;;;;4974047;28;20107;-62
2022/12/01 06:53:51;;;;;;;32.00;18.98;;;179.20;2252.80;;;;;;4974233;28;20027;-61
2022/12/01 06:56:17;;;;;;;25.67;14.43;;;154.40;2252.80;;;;;;4973952;28;20077;-61
2022/12/01 06:58:42;;;;;;;22.25;15.38;;;154.50;2252.80;;;;;;4974118;28;20026;-61
2022/12/01 07:01:10;;;;;;;26.40;16.05;;;179.20;2252.80;;;;;;4974225;28;20093;-61
2022/12/01 07:03:36;;;;;;;46.88;25.15;;;179.30;2252.80;;;;;;4974509;28;20031;-62
2022/12/01 07:06:02;;;;;;;22.60;13.82;;;179.60;2252.80;;;;;;4973628;28;20544;-61
2022/12/01 07:08:29;;;;;;;40.97;22.50;;;179.70;2252.80;;;;;;4974333;28;20081;-61
2022/12/01 07:11:11;;;;;;;45.63;25.40;;;179.40;2252.80;;;;;;4973877;28;20026;-56
2022/12/01 07:13:37;;;;;;;32.10;17.48;;;179.80;2252.80;;;;;;4974078;28;20026;-61
2022/12/01 07:16:03;;;;;;;23.42;14.95;;;179.50;2252.80;;;;;;4972989;28;20110;-60
2022/12/01 07:18:29;;;;;;;18.10;11.50;;;179.50;2252.80;;;;;;4973971;28;20030;-57
2022/12/01 07:21:00;;;;;;;22.17;13.93;;;179.40;2252.80;;;;;;4973680;28;20088;-57
2022/12/01 07:23:25;;;;;;;22.17;15.80;;;179.40;2252.80;;;;;;4973625;28;20023;-56
2022/12/01 07:26:01;;;;;;;15.93;11.05;;;179.40;2252.80;;;;;;4973527;28;20030;-60
2022/12/01 07:28:27;;;;;;;25.77;16.42;;;179.50;2252.80;;;;;;4973564;28;20501;-58
2022/12/01 07:30:53;;;;;;;24.75;14.80;;;154.50;2252.80;;;;;;4973547;28;20051;-57
2022/12/01 07:33:19;;;;;;;27.02;17.17;;;179.30;2252.80;;;;;;4973838;28;20026;-60
2022/12/01 07:35:44;;;;;;;27.95;18.40;;;179.20;2252.80;;;;;;4973298;28;20497;-56
2022/12/01 07:38:10;;;;;;;35.25;19.65;;;154.50;2252.80;;;;;;4973905;28;20050;-60
2022/12/01 07:40:36;;;;;;;26.05;18.70;;;179.30;2252.80;;;;;;4973592;28;20101;-59
2022/12/01 07:43:02;;;;;;;43.08;21.88;;;179.50;2252.80;;;;;;4973357;28;20046;-57
2022/12/01 07:45:28;;;;;;;50.08;24.70;;;179.30;2252.80;;;;;;4973344;28;20034;-56
2022/12/01 07:47:53;;;;;;;48.40;23.40;;;179.20;2252.80;;;;;;4973014;28;20034;-56
2022/12/01 07:50:19;;;;;;;32.00;16.92;;;179.20;2252.80;;;;;;4973214;28;20054;-60
2022/12/01 07:52:49;;;;;;;30.20;17.85;;;154.50;2252.80;;;;;;4973232;28;20023;-59
2022/12/01 07:55:15;;;;;;;26.13;14.68;;;179.40;2252.80;;;;;;4972676;28;20081;-59
2022/12/01 07:57:41;;;;;;;35.28;20.90;;;179.60;2252.80;;;;;;4973140;28;20031;-57
2022/12/01 08:00:07;;;;;;;35.17;21.15;;;179.70;2252.80;;;;;;4971392;28;20383;-59
2022/12/01 08:02:33;;;;;;;22.63;16.15;;;180.00;2252.80;;;;;;4971084;28;20082;-59
2022/12/01 08:04:59;;;;;;;16.65;11.77;;;180.10;2252.80;;;;;;4971520;28;20401;-56
2022/12/01 08:07:24;;;;;;;19.45;13.68;;;179.80;2252.80;;;;;;4970948;28;20031;-57
2022/12/01 08:09:50;;;;;;;21.95;14.30;;;179.90;2252.80;;;;;;4971399;28;20102;-55
2022/12/01 08:12:16;;;;;;;25.15;14.60;;;180.00;2252.80;;;;;;4971262;28;20053;-56
2022/12/01 08:14:41;;;;;;;23.30;16.63;;;179.80;2252.80;;;;;;4970452;28;20072;-60
2022/12/01 08:17:07;;;;;;;30.90;18.27;;;180.10;2252.80;;;;;;4971372;28;20031;-56
2022/12/01 08:19:33;;;;;;;24.27;16.58;;;179.90;2252.80;;;;;;4970825;28;20122;-57
2022/12/01 08:21:58;;;;;;;36.13;21.42;;;179.60;2252.80;;;;;;4971057;28;20030;-56
2022/12/01 08:24:24;;;;;;;32.75;21.63;;;179.20;2252.80;;;;;;4970770;28;20545;-57
2022/12/01 08:26:50;;;;;;;31.85;19.98;;;179.30;2252.80;;;;;;4970596;28;20031;-58
2022/12/01 08:29:16;;;;;;;36.53;22.23;;;179.30;2252.80;;;;;;4970678;28;20027;-60
2022/12/01 08:31:42;;;;;;;38.00;24.08;;;179.50;2252.80;;;;;;4970985;28;20023;-57
2022/12/01 08:34:07;;;;;;;25.98;16.10;;;179.70;2252.80;;;;;;4970996;28;20494;-59
2022/12/01 08:36:34;;;;;;;31.05;21.35;;;179.90;2252.80;;;;;;4970327;28;20540;-57
2022/12/01 08:39:00;;;;;;;36.88;20.83;;;179.90;2252.80;;;;;;4970312;28;20514;-58
2022/12/01 08:41:27;;;;;;;25.67;16.63;;;204.80;2252.80;;;;;;4970400;28;20043;-56
2022/12/01 08:43:53;;;;;;;18.70;12.20;;;180.10;2252.80;;;;;;4970487;28;20033;-58
2022/12/01 08:46:19;;;;;;;23.77;14.93;;;180.10;2252.80;;;;;;4970553;28;20023;-57
2022/12/01 08:48:45;;;;;;;26.38;14.95;;;204.80;2252.80;;;;;;4970341;28;20500;-57
2022/12/01 08:51:17;;;;;;;27.73;16.85;;;204.90;2252.80;;;;;;4970243;28;20046;-58
2022/12/01 08:53:45;;;;;;;21.02;11.98;;;205.10;2252.80;;;;;;4970014;28;20110;-56
2022/12/01 08:56:18;;;;;;;20.23;14.80;;;180.10;2252.80;;;;;;4970506;28;20254;-60
2022/12/01 08:58:43;;;;;;;26.98;17.52;;;179.90;2252.80;;;;;;4970169;28;20038;-58
2022/12/01 09:01:13;;;;;;;22.02;15.02;;;180.10;2252.80;;;;;;4970076;28;20034;-58
2022/12/01 09:03:39;;;;;;;17.00;11.73;;;179.80;2252.80;;;;;;4970495;28;20030;-57
2022/12/01 09:06:11;;;;;;;16.95;11.63;;;179.90;2252.80;;;;;;4969573;28;20071;-56
2022/12/01 09:08:38;;;;;;;37.03;22.83;;;179.90;2252.80;;;;;;4970272;28;20035;-56
2022/12/01 09:11:07;;;;;;;71.68;46.25;;;180.00;2252.80;;;;;;4970041;28;20037;-58
2022/12/01 09:13:35;;;;;;;26.63;16.23;;;204.80;2252.80;;;;;;4969891;28;20027;-57
2022/12/01 09:16:06;;;;;;;39.75;22.15;;;204.90;2252.80;;;;;;4970285;28;20382;-58
2022/12/01 09:18:32;;;;;;;24.77;16.17;;;204.90;2252.80;;;;;;4969712;28;20035;-57
2022/12/01 09:20:59;;;;;;;30.30;20.48;;;204.90;2252.80;;;;;;4970021;28;20051;-56
2022/12/01 09:23:25;;;;;;;39.25;23.38;;;205.10;2252.80;;;;;;4969777;28;20409;-58
2022/12/01 09:25:52;;;;;;;26.80;17.63;;;205.20;2252.80;;;;;;4969804;28;20474;-57
2022/12/01 09:28:18;;;;;;;36.25;24.88;;;205.10;2252.80;;;;;;4969926;28;20054;-55
2022/12/01 09:30:44;;;;;;;25.88;19.40;;;205.10;2252.80;;;;;;4969748;28;20122;-58
2022/12/01 09:33:11;;;;;;;33.75;21.55;;;205.40;2252.80;;;;;;4969483;28;20117;-55
2022/12/01 09:35:37;;;;;;;35.88;23.10;;;205.70;2252.80;;;;;;4969947;28;20174;-56
2022/12/01 09:38:03;;;;;;;40.15;28.45;;;205.70;2252.80;;;;;;4969592;28;20113;-55
2022/12/01 09:40:35;;;;;;;25.45;17.00;;;205.50;2252.80;;;;;;4969378;28;20038;-57
2022/12/01 09:43:09;;;;;;;21.77;13.50;;;205.50;2252.80;;;;;;4969606;28;20382;-57
2022/12/01 09:45:39;;;;;;;32.72;19.70;;;205.30;2252.80;;;;;;4969234;28;20038;-56
2022/12/01 09:48:06;;;;;;;29.10;18.90;;;205.60;2252.80;;;;;;4969623;28;20117;-58
2022/12/01 09:50:32;;;;;;;47.85;30.50;;;205.70;2252.80;;;;;;4969520;28;20058;-58
2022/12/01 09:52:59;;;;;;;44.67;27.73;;;205.50;2252.80;;;;;;4969806;28;20089;-59
2022/12/01 09:55:26;;;;;;;44.08;25.77;;;205.50;2252.80;;;;;;4969329;28;20023;-56
2022/12/01 09:57:55;;;;;;;62.58;40.60;;;205.40;2252.80;;;;;;4968963;28;20170;-56
2022/12/01 10:00:23;;;;;;;36.22;24.58;;;205.10;2252.80;;;;;;4969668;28;20031;-58
2022/12/01 10:02:52;;;;;;;46.90;27.42;;;205.10;2252.80;;;;;;4969631;28;20026;-57
2022/12/01 10:05:24;;;;;;;34.30;21.67;;;205.40;2252.80;;;;;;4969500;28;20063;-57
2022/12/01 10:08:02;;;;;;;40.72;23.63;;;205.20;2252.80;;;;;;4969618;28;20385;-58
2022/12/01 10:10:36;;;;;;;39.42;23.70;;;204.90;2252.80;;;;;;4969199;28;20023;-57
2022/12/01 10:13:02;;;;;;;34.15;22.20;;;205.00;2252.80;;;;;;4969335;28;20027;-58
2022/12/01 10:16:03;;;;;;;33.72;18.23;;;204.90;2252.80;;;;;;4969488;28;20033;-60
2022/12/01 10:18:56;;;;;;;36.55;22.00;;;205.20;2252.80;;;;;;4969597;28;20041;-55
2022/12/01 10:21:28;;;;;;;31.05;19.90;;;205.00;2252.80;;;;;;4969181;28;20061;-57
2022/12/01 10:24:12;;;;;;;25.80;16.33;;;205.20;2252.80;;;;;;4968794;28;20085;-55
2022/12/01 10:26:53;;;;;;;28.08;19.63;;;205.50;2252.80;;;;;;4969416;28;20023;-58
2022/12/01 10:29:33;;;;;;;33.88;17.80;;;205.40;2252.80;;;;;;4969400;28;20377;-58
2022/12/01 10:32:11;;;;;;;40.28;22.08;;;205.70;2252.80;;;;;;4969456;28;20033;-55
2022/12/01 10:34:40;;;;;;;29.05;14.68;;;205.30;2252.80;;;;;;4969546;28;20034;-58
2022/12/01 10:37:14;;;;;;;26.95;16.05;;;205.20;2252.80;;;;;;4968765;28;20035;-55
2022/12/01 10:39:43;;;;;;;28.60;17.20;;;205.30;2252.80;;;;;;4969162;28;20038;-58
2022/12/01 10:42:28;;;;;;;56.92;33.13;;;205.40;2252.80;;;;;;4969316;28;20027;-57
2022/12/01 10:45:00;;;;;;;40.75;24.92;;;205.30;2252.80;;;;;;4969102;28;20485;-54
2022/12/01 10:47:27;;;;;;;30.77;19.50;;;205.30;2252.80;;;;;;4969346;28;20037;-55
2022/12/01 10:49:53;;;;;;;18.88;11.77;;;205.30;2252.80;;;;;;4968642;28;20034;-54
2022/12/01 10:52:40;;;;;;;88.70;44.55;;;205.10;2252.80;;;;;;4970736;28;20702;-58
2022/12/01 10:55:21;;;;;;;91.28;46.13;;;205.10;2252.80;;;;;;4972671;28;20512;-60
2022/12/01 10:57:48;;;;;;;45.42;26.35;;;205.40;2252.80;;;;;;4972639;28;20043;-60
2022/12/01 11:00:33;;;;;;;56.03;29.38;;;205.20;2252.80;;;;;;4972291;28;20031;-57
2022/12/01 11:02:59;;;;;;;26.92;16.75;;;205.20;2252.80;;;;;;4972160;28;20026;-55
2022/12/01 11:05:30;;;;;;;45.55;29.42;;;205.30;2252.80;;;;;;4972263;28;20041;-55
2022/12/01 11:07:56;;;;;;;36.00;22.17;;;205.20;2252.80;;;;;;4974180;28;20503;-54
2022/12/01 11:10:27;;;;;;;23.33;17.25;;;205.40;2252.80;;;;;;4974144;28;20109;-55
2022/12/01 11:13:05;;;;;;;19.05;13.32;;;205.30;2252.80;;;;;;4973701;28;20080;-57
2022/12/01 11:15:39;;;;;;;43.58;29.08;;;205.30;2252.80;;;;;;4973876;28;20026;-55
2022/12/01 11:18:21;;;;;;;41.22;27.63;;;205.40;2252.80;;;;;;4973854;28;20362;-55
2022/12/01 11:21:02;;;;;;;31.05;21.95;;;205.60;2252.80;;;;;;4973914;28;20396;-53
2022/12/01 11:23:28;;;;;;;36.63;19.38;;;205.30;2252.80;;;;;;4973791;28;20026;-54
2022/12/01 11:26:00;;;;;;;40.60;24.55;;;205.40;2252.80;;;;;;4973633;28;20039;-54
2022/12/01 11:28:26;;;;;;;69.72;39.35;;;205.40;2252.80;;;;;;4973796;28;20114;-54
2022/12/01 11:31:02;;;;;;;29.35;16.95;;;205.40;2252.80;;;;;;4973651;28;20055;-54
2022/12/01 11:33:30;;;;;;;31.73;19.02;;;205.20;2252.80;;;;;;4973738;28;20485;-54
2022/12/01 11:35:56;;;;;;;22.92;15.48;;;205.30;2252.80;;;;;;4973424;28;20026;-54
2022/12/01 11:38:29;;;;;;;27.83;16.63;;;205.30;2252.80;;;;;;4970825;28;20034;-57
2022/12/01 11:40:57;;;;;;;28.58;17.10;;;205.50;2252.80;;;;;;4971655;28;20121;-56
2022/12/01 11:43:25;;;;;;;22.33;13.68;;;205.40;2252.80;;;;;;4971705;28;20110;-55
2022/12/01 11:45:53;;;;;;;25.15;15.65;;;205.10;2252.80;;;;;;4971787;28;20034;-58
2022/12/01 11:48:30;;;;;;;21.65;13.13;;;205.00;2252.80;;;;;;4971725;28;20023;-54
2022/12/01 11:51:19;;;;;;;30.65;19.75;;;205.00;2252.80;;;;;;4971607;28;20054;-53
2022/12/01 11:53:45;;;;;;;30.40;18.30;;;205.20;2252.80;;;;;;4963271;28;20042;-56
2022/12/01 11:56:19;;;;;;;27.90;19.30;;;205.00;2252.80;;;;;;4971379;28;20486;-55
2022/12/01 11:58:47;;;;;;;32.67;20.33;;;205.20;2252.80;;;;;;4971563;28;20106;-58
2022/12/01 12:01:43;;;;;;;33.58;16.30;;;205.10;2252.80;;;;;;4971324;28;20034;-56
2022/12/01 12:04:41;;;;;;;21.80;14.80;;;205.00;2252.80;;;;;;4971355;28;20390;-54
2022/12/01 12:07:21;;;;;;;30.98;19.00;;;205.00;2252.80;;;;;;4911375;29;20451;-54
2022/12/01 12:10:32;;;;;;;61.65;36.45;;;205.00;2252.80;;;;;;4911584;29;20040;-57
2022/12/01 12:13:15;;;;;;;39.78;20.92;;;205.00;2252.80;;;;;;4911519;29;20142;-57
2022/12/01 12:16:00;;;;;;;24.40;16.02;;;205.00;2252.80;;;;;;4911280;29;20028;-55